weather.gov     
National Weather Service

Terminal Aerodrome Forecast
NWS Homepage
This page is being discontinued on March 12, 2014.
The same data is available at this site. Please update your bookmarks.
Thank you, and we apologize for the inconvenience.
Please send an email to SR-SRH.Webmaster@noaa.gov with any concerns.


Current Version
Previous Version:    01  02  03  04  05  06  07  08  09  10  11  12  13  14  15  16  17  18  19  20  21  22  23  24  25  
[Printable]
567
FTUS43 KDMX 242332
TAFOTM
TAF
KOTM 242332Z 2500/2524 VRB06KT P6SM VCSH FEW040 SCT080 OVC120
     FM250400 14010KT P6SM SCT070 BKN120
     FM250900 14013G19KT P6SM VCTS SCT035CB BKN060 OVC120
     FM251700 17012G18KT P6SM SCT035 BKN150=


567
FTUS43 KDMX 242332
TAFOTM
TAF
KOTM 242332Z 2500/2524 VRB06KT P6SM VCSH FEW040 SCT080 OVC120
     FM250400 14010KT P6SM SCT070 BKN120
     FM250900 14013G19KT P6SM VCTS SCT035CB BKN060 OVC120
     FM251700 17012G18KT P6SM SCT035 BKN150=




U.S. Dept. of Commerce
NOAA National Weather Service
1325 East West Highway
Silver Spring, MD 20910
E-mail: w-nws.webmaster@noaa.gov
Page last modified: May 16, 2007
NATIONAL WEATHER SERVICE: for Safety, for Work, for Fun - FOR LIFE